LEVD/VLL METAR and TAF weather

Enter ICAO airport designator
Station Type Date Time Source
LEVD METAR 2019/06/26 19:30 UTC NOAA

LEVD 261930Z 32008KT CAVOK 27/12 Q1017


Station Type Date Time Source
LEVD Decoded METAR 2019/06/26 19:30 UTC NOAA

Valladolid / Villanubla, Spain (LEVD) 41-43N 004-51W 846M
Jun 26, 2019 - 03:30 PM EDT / 2019.06.26 1930 UTC
Wind: from the NW (320 degrees) at 9 MPH (8 KT):0
Visibility: greater than 7 mile(s):0
Temperature: 80 F (27 C)
Dew Point: 53 F (12 C)
Relative Humidity: 39%
Pressure (altimeter): 30.03 in. Hg (1017 hPa)
ob: LEVD 261930Z 32008KT CAVOK 27/12 Q1017
cycle: 19

Station Type Date Time Source
LEVD TAF 2019/06/26 18:29 UTC NOAA

TAF LEVD 261700Z 2618/2718 22011KT CAVOK TX39/2716Z TN21/2706Z PROB30
TEMPO 2618/2619 22015G25KT
TEMPO 2623/2705 VRB05KT
BECMG 2707/2709 16015KT PROB40
TEMPO 2710/2718 16017G32KT

Example: see airport list